sensor_id;sensor_type;location;lat;lon;timestamp;pressure;altitude;pressure_sealevel;temperature;humidity
6349;BME280;3207;42.648;23.406;2024-01-30T00:00:30;102204.31;;;3.74;74.41
6349;BME280;3207;42.648;23.406;2024-01-30T00:02:57;102197.47;;;3.70;74.61
6349;BME280;3207;42.648;23.406;2024-01-30T00:05:24;102204.41;;;3.67;75.10
6349;BME280;3207;42.648;23.406;2024-01-30T00:07:52;102201.84;;;3.61;75.02
6349;BME280;3207;42.648;23.406;2024-01-30T00:10:19;102198.44;;;3.59;74.92
6349;BME280;3207;42.648;23.406;2024-01-30T00:12:46;102198.47;;;3.56;75.20
6349;BME280;3207;42.648;23.406;2024-01-30T00:15:13;102189.03;;;3.49;74.95
6349;BME280;3207;42.648;23.406;2024-01-30T00:17:40;102197.59;;;3.54;75.14
6349;BME280;3207;42.648;23.406;2024-01-30T00:20:08;102193.31;;;3.52;75.19
6349;BME280;3207;42.648;23.406;2024-01-30T00:22:35;102195.91;;;3.50;75.18
6349;BME280;3207;42.648;23.406;2024-01-30T00:25:04;102201.13;;;3.47;75.77
6349;BME280;3207;42.648;23.406;2024-01-30T00:27:31;102151.41;;;3.15;75.41
6349;BME280;3207;42.648;23.406;2024-01-30T00:29:58;102194.25;;;3.40;75.30
6349;BME280;3207;42.648;23.406;2024-01-30T00:32:25;102206.38;;;3.37;75.30
6349;BME280;3207;42.648;23.406;2024-01-30T00:34:52;102192.69;;;3.21;75.77
6349;BME280;3207;42.648;23.406;2024-01-30T00:37:19;102206.44;;;3.26;75.94
6349;BME280;3207;42.648;23.406;2024-01-30T00:39:46;102204.81;;;3.16;76.05
6349;BME280;3207;42.648;23.406;2024-01-30T00:42:14;102186.75;;;3.08;76.28
6349;BME280;3207;42.648;23.406;2024-01-30T00:44:41;102205.69;;;3.10;76.62
6349;BME280;3207;42.648;23.406;2024-01-30T00:47:08;102210.84;;;3.12;76.83
6349;BME280;3207;42.648;23.406;2024-01-30T00:49:35;102198.78;;;3.09;77.21
6349;BME280;3207;42.648;23.406;2024-01-30T00:52:03;102194.59;;;2.96;77.07
6349;BME280;3207;42.648;23.406;2024-01-30T00:54:30;102215.19;;;3.07;77.27
6349;BME280;3207;42.648;23.406;2024-01-30T00:56:57;102201.44;;;2.99;77.16
6349;BME280;3207;42.648;23.406;2024-01-30T00:59:25;102209.19;;;2.99;77.36
6349;BME280;3207;42.648;23.406;2024-01-30T01:01:52;102210.06;;;2.99;77.23
6349;BME280;3207;42.648;23.406;2024-01-30T01:04:19;102210.06;;;2.98;77.21
6349;BME280;3207;42.648;23.406;2024-01-30T01:06:46;102186.06;;;2.79;76.89
6349;BME280;3207;42.648;23.406;2024-01-30T01:09:14;102198.97;;;2.80;76.89
6349;BME280;3207;42.648;23.406;2024-01-30T01:11:40;102203.28;;;2.81;77.02
6349;BME280;3207;42.648;23.406;2024-01-30T01:14:07;102201.56;;;2.80;77.44
6349;BME280;3207;42.648;23.406;2024-01-30T01:16:36;102200.72;;;2.77;76.92
6349;BME280;3207;42.648;23.406;2024-01-30T01:19:03;102194.72;;;2.73;77.61
6349;BME280;3207;42.648;23.406;2024-01-30T01:21:30;102204.19;;;2.73;77.37
6349;BME280;3207;42.648;23.406;2024-01-30T01:23:57;102195.59;;;2.72;78.07
6349;BME280;3207;42.648;23.406;2024-01-30T01:26:24;102193.00;;;2.75;77.69
6349;BME280;3207;42.648;23.406;2024-01-30T01:28:51;102198.16;;;2.72;77.78
6349;BME280;3207;42.648;23.406;2024-01-30T01:31:18;102188.72;;;2.68;77.86
6349;BME280;3207;42.648;23.406;2024-01-30T01:33:46;102170.72;;;2.50;77.48
6349;BME280;3207;42.648;23.406;2024-01-30T01:36:13;102195.63;;;2.65;77.50
6349;BME280;3207;42.648;23.406;2024-01-30T01:38:40;102194.78;;;2.64;77.50
6349;BME280;3207;42.648;23.406;2024-01-30T01:41:07;102192.19;;;2.64;77.78
6349;BME280;3207;42.648;23.406;2024-01-30T01:43:34;102195.63;;;2.62;77.86
6349;BME280;3207;42.648;23.406;2024-01-30T01:46:03;102187.03;;;2.56;77.78
6349;BME280;3207;42.648;23.406;2024-01-30T01:48:30;102183.59;;;2.64;77.36
6349;BME280;3207;42.648;23.406;2024-01-30T01:50:59;102185.31;;;2.65;77.88
6349;BME280;3207;42.648;23.406;2024-01-30T01:53:26;102183.59;;;2.64;77.79
6349;BME280;3207;42.648;23.406;2024-01-30T01:55:54;102182.69;;;2.66;77.67
6349;BME280;3207;42.648;23.406;2024-01-30T01:58:21;102177.56;;;2.62;77.39
6349;BME280;3207;42.648;23.406;2024-01-30T02:00:50;102187.88;;;2.65;77.67
6349;BME280;3207;42.648;23.406;2024-01-30T02:03:18;102181.00;;;2.61;77.17
6349;BME280;3207;42.648;23.406;2024-01-30T02:05:47;102181.88;;;2.58;77.07
6349;BME280;3207;42.648;23.406;2024-01-30T02:08:15;102169.03;;;2.44;77.90
6349;BME280;3207;42.648;23.406;2024-01-30T02:10:42;102181.06;;;2.53;77.88
6349;BME280;3207;42.648;23.406;2024-01-30T02:13:09;102172.44;;;2.51;77.67
6349;BME280;3207;42.648;23.406;2024-01-30T02:15:36;102166.47;;;2.41;77.98
6349;BME280;3207;42.648;23.406;2024-01-30T02:18:03;102181.06;;;2.50;77.77
6349;BME280;3207;42.648;23.406;2024-01-30T02:20:31;102185.38;;;2.48;77.88
6349;BME280;3207;42.648;23.406;2024-01-30T02:23:02;102187.09;;;2.44;78.14
6349;BME280;3207;42.648;23.406;2024-01-30T02:25:34;102184.53;;;2.40;78.47
6349;BME280;3207;42.648;23.406;2024-01-30T02:28:01;102174.22;;;2.37;78.78
6349;BME280;3207;42.648;23.406;2024-01-30T02:30:28;102177.66;;;2.36;78.38
6349;BME280;3207;42.648;23.406;2024-01-30T02:32:55;102181.97;;;2.38;78.51
6349;BME280;3207;42.648;23.406;2024-01-30T02:35:22;102117.63;;;1.99;78.25
6349;BME280;3207;42.648;23.406;2024-01-30T02:37:49;102175.13;;;2.28;78.74
6349;BME280;3207;42.648;23.406;2024-01-30T02:40:18;102182.88;;;2.33;78.54
6349;BME280;3207;42.648;23.406;2024-01-30T02:42:45;102178.56;;;2.29;78.57
6349;BME280;3207;42.648;23.406;2024-01-30T02:45:13;102176.00;;;2.26;78.73
6349;BME280;3207;42.648;23.406;2024-01-30T02:47:40;102179.44;;;2.28;78.89
6349;BME280;3207;42.648;23.406;2024-01-30T02:50:08;102183.72;;;2.26;79.20
6349;BME280;3207;42.648;23.406;2024-01-30T02:52:35;102180.28;;;2.24;78.90
6349;BME280;3207;42.648;23.406;2024-01-30T02:55:02;102176.00;;;2.22;79.42
6349;BME280;3207;42.648;23.406;2024-01-30T02:57:30;102162.28;;;2.11;78.98
6349;BME280;3207;42.648;23.406;2024-01-30T02:59:58;102172.59;;;2.14;79.18
6349;BME280;3207;42.648;23.406;2024-01-30T03:02:25;102163.16;;;2.06;79.13
6349;BME280;3207;42.648;23.406;2024-01-30T03:04:52;102180.34;;;2.10;79.54
6349;BME280;3207;42.648;23.406;2024-01-30T03:07:19;102168.31;;;2.04;79.08
6349;BME280;3207;42.648;23.406;2024-01-30T03:09:46;102163.19;;;1.92;79.50
6349;BME280;3207;42.648;23.406;2024-01-30T03:12:13;102187.22;;;2.08;79.44
6349;BME280;3207;42.648;23.406;2024-01-30T03:14:42;102176.09;;;1.95;79.44
6349;BME280;3207;42.648;23.406;2024-01-30T03:17:09;102175.22;;;1.96;80.39
6349;BME280;3207;42.648;23.406;2024-01-30T03:19:36;102179.50;;;1.91;80.28
6349;BME280;3207;42.648;23.406;2024-01-30T03:22:03;102170.94;;;1.89;80.77
6349;BME280;3207;42.648;23.406;2024-01-30T03:24:30;102165.78;;;1.81;80.50
6349;BME280;3207;42.648;23.406;2024-01-30T03:26:57;102177.81;;;1.87;81.03
6349;BME280;3207;42.648;23.406;2024-01-30T03:29:24;102167.50;;;1.81;80.72
6349;BME280;3207;42.648;23.406;2024-01-30T03:31:52;102171.81;;;1.83;80.43
6349;BME280;3207;42.648;23.406;2024-01-30T03:34:19;102164.94;;;1.84;80.19
6349;BME280;3207;42.648;23.406;2024-01-30T03:36:46;102170.94;;;1.83;79.72
6349;BME280;3207;42.648;23.406;2024-01-30T03:39:13;102172.69;;;1.78;79.85
6349;BME280;3207;42.648;23.406;2024-01-30T03:41:42;102158.09;;;1.66;79.62
6349;BME280;3207;42.648;23.406;2024-01-30T03:44:10;102166.69;;;1.67;79.92
6349;BME280;3207;42.648;23.406;2024-01-30T03:46:37;102126.34;;;1.44;79.87
6349;BME280;3207;42.648;23.406;2024-01-30T03:49:05;102152.94;;;1.54;79.69
6349;BME280;3207;42.648;23.406;2024-01-30T03:51:32;102162.38;;;1.60;79.83
6349;BME280;3207;42.648;23.406;2024-01-30T03:53:59;102176.13;;;1.63;79.86
6349;BME280;3207;42.648;23.406;2024-01-30T03:56:26;102167.56;;;1.57;79.74
6349;BME280;3207;42.648;23.406;2024-01-30T03:58:53;102161.53;;;1.52;79.71
6349;BME280;3207;42.648;23.406;2024-01-30T04:01:21;102164.97;;;1.51;79.76
6349;BME280;3207;42.648;23.406;2024-01-30T04:03:48;102169.28;;;1.55;79.62
6349;BME280;3207;42.648;23.406;2024-01-30T04:06:16;102157.25;;;1.54;79.51
6349;BME280;3207;42.648;23.406;2024-01-30T04:08:43;102150.38;;;1.53;79.62
6349;BME280;3207;42.648;23.406;2024-01-30T04:11:10;102163.25;;;1.53;80.13
6349;BME280;3207;42.648;23.406;2024-01-30T04:13:37;102144.38;;;1.41;80.18
6349;BME280;3207;42.648;23.406;2024-01-30T04:16:05;102150.38;;;1.46;80.10
6349;BME280;3207;42.648;23.406;2024-01-30T04:18:32;102157.25;;;1.41;79.91
6349;BME280;3207;42.648;23.406;2024-01-30T04:20:59;102152.97;;;1.34;80.12
6349;BME280;3207;42.648;23.406;2024-01-30T04:23:28;102157.25;;;1.40;80.14
6349;BME280;3207;42.648;23.406;2024-01-30T04:25:55;102159.81;;;1.41;80.22
6349;BME280;3207;42.648;23.406;2024-01-30T04:28:22;102148.66;;;1.32;80.38
6349;BME280;3207;42.648;23.406;2024-01-30T04:30:49;102164.13;;;1.42;80.42
6349;BME280;3207;42.648;23.406;2024-01-30T04:33:16;102165.84;;;1.43;80.36
6349;BME280;3207;42.648;23.406;2024-01-30T04:35:43;102155.56;;;1.37;80.22
6349;BME280;3207;42.648;23.406;2024-01-30T04:38:10;102165.84;;;1.43;80.00
6349;BME280;3207;42.648;23.406;2024-01-30T04:40:39;102149.53;;;1.34;80.16
6349;BME280;3207;42.648;23.406;2024-01-30T04:43:06;102163.25;;;1.40;80.22
6349;BME280;3207;42.648;23.406;2024-01-30T04:45:33;102171.00;;;1.43;79.90
6349;BME280;3207;42.648;23.406;2024-01-30T04:48:00;102165.00;;;1.37;80.06
6349;BME280;3207;42.648;23.406;2024-01-30T04:50:27;102171.00;;;1.37;80.05
6349;BME280;3207;42.648;23.406;2024-01-30T04:52:54;102158.97;;;1.29;80.16
6349;BME280;3207;42.648;23.406;2024-01-30T04:55:21;102152.97;;;1.27;80.04
6349;BME280;3207;42.648;23.406;2024-01-30T04:57:49;102168.44;;;1.25;80.21
6349;BME280;3207;42.648;23.406;2024-01-30T05:00:16;102173.56;;;1.28;80.69
6349;BME280;3207;42.648;23.406;2024-01-30T05:02:43;102180.44;;;1.32;80.46
6349;BME280;3207;42.648;23.406;2024-01-30T05:05:10;102171.88;;;1.36;80.61
6349;BME280;3207;42.648;23.406;2024-01-30T05:07:39;102168.44;;;1.37;80.52
6349;BME280;3207;42.648;23.406;2024-01-30T05:10:06;102155.53;;;1.28;80.65
6349;BME280;3207;42.648;23.406;2024-01-30T05:12:33;102169.28;;;1.36;80.68
6349;BME280;3207;42.648;23.406;2024-01-30T05:15:02;102162.41;;;1.32;80.93
6349;BME280;3207;42.648;23.406;2024-01-30T05:17:30;102176.13;;;1.40;80.98
6349;BME280;3207;42.648;23.406;2024-01-30T05:19:57;102139.22;;;1.25;80.72
6349;BME280;3207;42.648;23.406;2024-01-30T05:22:24;102061.09;;;0.76;80.74
6349;BME280;3207;42.648;23.406;2024-01-30T05:24:51;102166.69;;;1.44;80.92
6349;BME280;3207;42.648;23.406;2024-01-30T05:27:18;102173.56;;;1.39;80.85
6349;BME280;3207;42.648;23.406;2024-01-30T05:29:45;102184.75;;;1.33;81.46
6349;BME280;3207;42.648;23.406;2024-01-30T05:32:13;102164.13;;;1.24;81.35
6349;BME280;3207;42.648;23.406;2024-01-30T05:34:41;102194.19;;;1.40;81.92
6349;BME280;3207;42.648;23.406;2024-01-30T05:37:08;102198.50;;;1.35;81.60
6349;BME280;3207;42.648;23.406;2024-01-30T05:39:35;102201.03;;;1.31;81.61
6349;BME280;3207;42.648;23.406;2024-01-30T05:42:02;102197.63;;;1.35;81.52
6349;BME280;3207;42.648;23.406;2024-01-30T05:44:29;102201.91;;;1.34;81.79
6349;BME280;3207;42.648;23.406;2024-01-30T05:46:56;102198.47;;;1.38;81.65
6349;BME280;3207;42.648;23.406;2024-01-30T05:49:25;102180.41;;;1.19;82.02
6349;BME280;3207;42.648;23.406;2024-01-30T05:51:52;102196.75;;;1.28;81.84
6349;BME280;3207;42.648;23.406;2024-01-30T05:54:19;102207.06;;;1.30;81.76
6349;BME280;3207;42.648;23.406;2024-01-30T05:56:46;102205.31;;;1.27;81.83
6349;BME280;3207;42.648;23.406;2024-01-30T05:59:13;102205.31;;;1.27;82.03
6349;BME280;3207;42.648;23.406;2024-01-30T06:01:45;102204.47;;;1.28;81.77
6349;BME280;3207;42.648;23.406;2024-01-30T06:04:13;102204.50;;;1.27;81.69
6349;BME280;3207;42.648;23.406;2024-01-30T06:06:41;102201.88;;;1.19;81.55
6349;BME280;3207;42.648;23.406;2024-01-30T06:09:08;102201.03;;;1.17;81.62
6349;BME280;3207;42.648;23.406;2024-01-30T06:11:35;102208.75;;;1.20;81.38
6349;BME280;3207;42.648;23.406;2024-01-30T06:14:02;102208.78;;;1.23;81.24
6349;BME280;3207;42.648;23.406;2024-01-30T06:16:29;102206.19;;;1.19;81.64
6349;BME280;3207;42.648;23.406;2024-01-30T06:18:56;102209.63;;;1.19;81.76
6349;BME280;3207;42.648;23.406;2024-01-30T06:21:23;102210.47;;;1.21;81.46
6349;BME280;3207;42.648;23.406;2024-01-30T06:23:52;102212.22;;;1.22;81.46
6349;BME280;3207;42.648;23.406;2024-01-30T06:26:19;102213.91;;;1.19;81.29
6349;BME280;3207;42.648;23.406;2024-01-30T06:28:46;102175.28;;;1.05;81.68
6349;BME280;3207;42.648;23.406;2024-01-30T06:31:13;102201.06;;;1.26;81.63
6349;BME280;3207;42.648;23.406;2024-01-30T06:33:40;102199.31;;;1.28;81.62
6349;BME280;3207;42.648;23.406;2024-01-30T06:36:08;102189.03;;;1.27;81.58
6349;BME280;3207;42.648;23.406;2024-01-30T06:38:35;102194.19;;;1.43;81.38
6349;BME280;3207;42.648;23.406;2024-01-30T06:41:03;102197.59;;;1.77;81.88
6349;BME280;3207;42.648;23.406;2024-01-30T06:43:30;102180.31;;;2.14;81.83
6349;BME280;3207;42.648;23.406;2024-01-30T06:45:57;102205.00;;;2.76;81.25
6349;BME280;3207;42.648;23.406;2024-01-30T06:48:25;102198.78;;;3.14;80.05
6349;BME280;3207;42.648;23.406;2024-01-30T06:50:53;102209.75;;;3.43;79.65
6349;BME280;3207;42.648;23.406;2024-01-30T06:53:20;102208.53;;;3.84;77.94
6349;BME280;3207;42.648;23.406;2024-01-30T06:55:47;102219.38;;;4.22;77.35
6349;BME280;3207;42.648;23.406;2024-01-30T06:58:15;102212.00;;;4.61;75.02
6349;BME280;3207;42.648;23.406;2024-01-30T07:00:42;102224.34;;;5.08;73.06
6349;BME280;3207;42.648;23.406;2024-01-30T07:03:09;102210.59;;;5.58;70.41
6349;BME280;3207;42.648;23.406;2024-01-30T07:05:36;102206.59;;;6.36;66.81
6349;BME280;3207;42.648;23.406;2024-01-30T07:08:04;102214.94;;;7.30;63.57
6349;BME280;3207;42.648;23.406;2024-01-30T07:10:31;102230.63;;;8.29;59.76
6349;BME280;3207;42.648;23.406;2024-01-30T07:12:58;102208.03;;;8.90;56.60
6349;BME280;3207;42.648;23.406;2024-01-30T07:15:26;102220.66;;;9.84;52.79
6349;BME280;3207;42.648;23.406;2024-01-30T07:17:53;102234.06;;;10.94;48.46
6349;BME280;3207;42.648;23.406;2024-01-30T07:20:20;102236.03;;;12.17;45.63
6349;BME280;3207;42.648;23.406;2024-01-30T07:22:47;102241.34;;;13.30;42.14
6349;BME280;3207;42.648;23.406;2024-01-30T07:25:14;102230.06;;;13.98;39.69
6349;BME280;3207;42.648;23.406;2024-01-30T07:27:42;102230.38;;;14.91;37.20
6349;BME280;3207;42.648;23.406;2024-01-30T07:30:09;102235.06;;;15.93;34.96
6349;BME280;3207;42.648;23.406;2024-01-30T07:32:38;102240.72;;;16.73;33.26
6349;BME280;3207;42.648;23.406;2024-01-30T07:35:05;102243.81;;;17.75;32.26
6349;BME280;3207;42.648;23.406;2024-01-30T07:37:32;102243.78;;;18.89;29.72
6349;BME280;3207;42.648;23.406;2024-01-30T07:39:59;102248.13;;;19.85;28.13
6349;BME280;3207;42.648;23.406;2024-01-30T07:42:26;102252.97;;;20.82;26.97
6349;BME280;3207;42.648;23.406;2024-01-30T07:44:53;102248.63;;;21.67;25.42
6349;BME280;3207;42.648;23.406;2024-01-30T07:47:20;102245.66;;;22.53;24.48
6349;BME280;3207;42.648;23.406;2024-01-30T07:49:48;102252.03;;;23.21;23.66
6349;BME280;3207;42.648;23.406;2024-01-30T07:52:15;102255.47;;;23.81;22.69
6349;BME280;3207;42.648;23.406;2024-01-30T07:54:42;102235.63;;;24.40;22.37
6349;BME280;3207;42.648;23.406;2024-01-30T07:57:09;102263.84;;;25.34;21.17
6349;BME280;3207;42.648;23.406;2024-01-30T07:59:36;102262.44;;;26.01;20.15
6349;BME280;3207;42.648;23.406;2024-01-30T08:02:03;102263.03;;;26.39;19.87
6349;BME280;3207;42.648;23.406;2024-01-30T08:04:31;102259.84;;;26.69;19.42
6349;BME280;3207;42.648;23.406;2024-01-30T08:06:59;102251.25;;;27.08;18.93
6349;BME280;3207;42.648;23.406;2024-01-30T08:09:26;102261.72;;;27.43;18.62
6349;BME280;3207;42.648;23.406;2024-01-30T08:11:53;102257.31;;;27.34;18.64
6349;BME280;3207;42.648;23.406;2024-01-30T08:14:20;102260.22;;;27.81;18.61
6349;BME280;3207;42.648;23.406;2024-01-30T08:16:47;102237.16;;;28.27;18.11
6349;BME280;3207;42.648;23.406;2024-01-30T08:19:14;102265.13;;;28.96;17.37
6349;BME280;3207;42.648;23.406;2024-01-30T08:21:41;102277.91;;;29.56;17.17
6349;BME280;3207;42.648;23.406;2024-01-30T08:24:10;102279.91;;;30.00;16.96
6349;BME280;3207;42.648;23.406;2024-01-30T08:26:37;102280.97;;;30.43;16.88
6349;BME280;3207;42.648;23.406;2024-01-30T08:29:04;102273.69;;;30.73;16.20
6349;BME280;3207;42.648;23.406;2024-01-30T08:31:31;102276.69;;;30.78;16.46
6349;BME280;3207;42.648;23.406;2024-01-30T08:33:58;102271.09;;;30.35;16.49
6349;BME280;3207;42.648;23.406;2024-01-30T08:36:25;102259.94;;;30.09;16.80
6349;BME280;3207;42.648;23.406;2024-01-30T08:38:52;102259.00;;;30.16;16.49
6349;BME280;3207;42.648;23.406;2024-01-30T08:41:20;102267.97;;;29.94;16.92
6349;BME280;3207;42.648;23.406;2024-01-30T08:43:47;102269.59;;;29.43;16.65
6349;BME280;3207;42.648;23.406;2024-01-30T08:46:17;102263.19;;;28.82;17.15
6349;BME280;3207;42.648;23.406;2024-01-30T08:48:44;102256.97;;;28.34;17.16
6349;BME280;3207;42.648;23.406;2024-01-30T08:51:11;102254.13;;;28.12;17.64
6349;BME280;3207;42.648;23.406;2024-01-30T08:53:38;102232.47;;;27.24;18.25
6349;BME280;3207;42.648;23.406;2024-01-30T08:56:06;102260.69;;;27.28;18.20
6349;BME280;3207;42.648;23.406;2024-01-30T08:58:35;102262.06;;;27.40;18.09
6349;BME280;3207;42.648;23.406;2024-01-30T09:01:02;102259.06;;;27.67;18.26
6349;BME280;3207;42.648;23.406;2024-01-30T09:03:30;102253.78;;;28.39;17.77
6349;BME280;3207;42.648;23.406;2024-01-30T09:05:57;102253.84;;;29.01;17.34
6349;BME280;3207;42.648;23.406;2024-01-30T09:08:24;102246.50;;;29.18;16.86
6349;BME280;3207;42.648;23.406;2024-01-30T09:10:51;102254.16;;;29.74;16.36
6349;BME280;3207;42.648;23.406;2024-01-30T09:13:18;102248.66;;;30.35;16.30
6349;BME280;3207;42.648;23.406;2024-01-30T09:15:46;102258.75;;;31.27;15.74
6349;BME280;3207;42.648;23.406;2024-01-30T09:18:13;102257.94;;;31.70;15.49
6349;BME280;3207;42.648;23.406;2024-01-30T09:20:41;102257.34;;;31.74;14.93
6349;BME280;3207;42.648;23.406;2024-01-30T09:23:08;102256.00;;;31.91;14.68
6349;BME280;3207;42.648;23.406;2024-01-30T09:25:34;102263.38;;;32.32;14.65
6349;BME280;3207;42.648;23.406;2024-01-30T09:28:01;102262.94;;;32.69;14.42
6349;BME280;3207;42.648;23.406;2024-01-30T09:30:28;102262.81;;;33.78;13.73
6349;BME280;3207;42.648;23.406;2024-01-30T09:32:57;102268.00;;;33.99;13.58
6349;BME280;3207;42.648;23.406;2024-01-30T09:35:25;102261.53;;;33.61;13.88
6349;BME280;3207;42.648;23.406;2024-01-30T09:37:52;102262.81;;;33.78;13.61
6349;BME280;3207;42.648;23.406;2024-01-30T09:40:19;102245.50;;;32.79;14.20
6349;BME280;3207;42.648;23.406;2024-01-30T09:42:47;102252.09;;;32.63;14.42
6349;BME280;3207;42.648;23.406;2024-01-30T09:45:17;102257.75;;;33.29;14.08
6349;BME280;3207;42.648;23.406;2024-01-30T09:47:45;102254.44;;;33.93;13.95
6349;BME280;3207;42.648;23.406;2024-01-30T09:50:14;102247.78;;;34.60;13.27
6349;BME280;3207;42.648;23.406;2024-01-30T09:52:42;102254.50;;;35.02;12.84
6349;BME280;3207;42.648;23.406;2024-01-30T09:55:09;102254.75;;;35.32;12.69
6349;BME280;3207;42.648;23.406;2024-01-30T09:57:36;102254.16;;;36.41;12.69
6349;BME280;3207;42.648;23.406;2024-01-30T10:00:04;102243.28;;;37.19;11.64
6349;BME280;3207;42.648;23.406;2024-01-30T10:02:34;102245.50;;;36.80;12.24
6349;BME280;3207;42.648;23.406;2024-01-30T10:05:01;102245.66;;;36.12;12.54
6349;BME280;3207;42.648;23.406;2024-01-30T10:07:30;102241.00;;;35.76;12.33
6349;BME280;3207;42.648;23.406;2024-01-30T10:09:57;102241.69;;;36.33;12.82
6349;BME280;3207;42.648;23.406;2024-01-30T10:12:26;102241.38;;;36.89;11.62
6349;BME280;3207;42.648;23.406;2024-01-30T10:14:56;102235.88;;;36.78;11.94
6349;BME280;3207;42.648;23.406;2024-01-30T10:17:25;102243.53;;;37.41;11.66
6349;BME280;3207;42.648;23.406;2024-01-30T10:19:52;102225.34;;;36.63;11.96
6349;BME280;3207;42.648;23.406;2024-01-30T10:22:19;102217.47;;;37.03;11.99
6349;BME280;3207;42.648;23.406;2024-01-30T10:24:48;102226.34;;;37.98;10.96
6349;BME280;3207;42.648;23.406;2024-01-30T10:27:15;102220.84;;;38.73;11.19
6349;BME280;3207;42.648;23.406;2024-01-30T10:29:42;102200.78;;;38.85;11.00
6349;BME280;3207;42.648;23.406;2024-01-30T10:32:09;102222.78;;;39.51;10.30
6349;BME280;3207;42.648;23.406;2024-01-30T10:34:36;102214.63;;;39.40;10.48
6349;BME280;3207;42.648;23.406;2024-01-30T10:37:07;102216.16;;;39.86;10.16
6349;BME280;3207;42.648;23.406;2024-01-30T10:39:39;102213.22;;;40.58;10.42
6349;BME280;3207;42.648;23.406;2024-01-30T10:42:11;102210.13;;;40.71;10.18
6349;BME280;3207;42.648;23.406;2024-01-30T10:44:44;102205.63;;;40.87;9.93
6349;BME280;3207;42.648;23.406;2024-01-30T10:47:18;102206.44;;;40.39;9.82
6349;BME280;3207;42.648;23.406;2024-01-30T10:49:47;102201.28;;;39.60;10.23
6349;BME280;3207;42.648;23.406;2024-01-30T10:52:16;102195.34;;;39.68;10.56
6349;BME280;3207;42.648;23.406;2024-01-30T10:54:44;102189.94;;;39.73;10.47
6349;BME280;3207;42.648;23.406;2024-01-30T10:57:14;102192.09;;;40.32;9.87
6349;BME280;3207;42.648;23.406;2024-01-30T10:59:43;102190.53;;;40.89;9.74
6349;BME280;3207;42.648;23.406;2024-01-30T11:02:11;102174.16;;;41.00;9.92
6349;BME280;3207;42.648;23.406;2024-01-30T11:04:40;102181.66;;;41.93;9.36
6349;BME280;3207;42.648;23.406;2024-01-30T11:07:17;102174.47;;;42.65;8.82
6349;BME280;3207;42.648;23.406;2024-01-30T11:09:50;102174.25;;;43.12;8.82
6349;BME280;3207;42.648;23.406;2024-01-30T11:12:23;102177.25;;;43.41;8.54
6349;BME280;3207;42.648;23.406;2024-01-30T11:15:00;102178.66;;;42.88;8.71
6349;BME280;3207;42.648;23.406;2024-01-30T11:17:29;102168.91;;;42.34;8.92
6349;BME280;3207;42.648;23.406;2024-01-30T11:20:09;102177.72;;;41.74;9.13
6349;BME280;3207;42.648;23.406;2024-01-30T11:22:37;102167.19;;;40.33;9.71
6349;BME280;3207;42.648;23.406;2024-01-30T11:25:04;102161.19;;;39.76;10.18
6349;BME280;3207;42.648;23.406;2024-01-30T11:27:33;102157.66;;;40.19;10.14
6349;BME280;3207;42.648;23.406;2024-01-30T11:30:01;102162.97;;;40.79;9.44
6349;BME280;3207;42.648;23.406;2024-01-30T11:32:29;102151.22;;;41.16;9.28
6349;BME280;3207;42.648;23.406;2024-01-30T11:34:56;102157.72;;;40.73;9.30
6349;BME280;3207;42.648;23.406;2024-01-30T11:37:25;102153.22;;;40.13;9.90
6349;BME280;3207;42.648;23.406;2024-01-30T11:39:53;102156.59;;;39.98;9.89
6349;BME280;3207;42.648;23.406;2024-01-30T11:42:23;102134.84;;;40.13;9.63
6349;BME280;3207;42.648;23.406;2024-01-30T11:44:52;102147.47;;;40.36;10.40
6349;BME280;3207;42.648;23.406;2024-01-30T11:47:19;102145.25;;;39.90;10.41
6349;BME280;3207;42.648;23.406;2024-01-30T11:49:46;102128.69;;;39.63;10.30
6349;BME280;3207;42.648;23.406;2024-01-30T11:52:14;102132.94;;;38.70;10.67
6349;BME280;3207;42.648;23.406;2024-01-30T11:54:41;102123.78;;;37.44;11.59
6349;BME280;3207;42.648;23.406;2024-01-30T11:57:08;102122.09;;;36.96;11.16
6349;BME280;3207;42.648;23.406;2024-01-30T11:59:35;102112.34;;;35.81;11.67
6349;BME280;3207;42.648;23.406;2024-01-30T12:02:04;102099.81;;;35.12;12.83
6349;BME280;3207;42.648;23.406;2024-01-30T12:04:31;102015.13;;;34.27;12.86
6349;BME280;3207;42.648;23.406;2024-01-30T12:06:58;102099.00;;;33.26;13.42
6349;BME280;3207;42.648;23.406;2024-01-30T12:09:25;102089.09;;;31.98;14.31
6349;BME280;3207;42.648;23.406;2024-01-30T12:11:53;102080.63;;;30.90;15.15
6349;BME280;3207;42.648;23.406;2024-01-30T12:14:22;102061.84;;;28.61;16.96
6349;BME280;3207;42.648;23.406;2024-01-30T12:16:50;102075.84;;;27.87;17.34
6349;BME280;3207;42.648;23.406;2024-01-30T12:19:25;102063.66;;;25.96;19.12
6349;BME280;3207;42.648;23.406;2024-01-30T12:21:56;102041.72;;;24.36;20.47
6349;BME280;3207;42.648;23.406;2024-01-30T12:24:24;102044.28;;;23.17;21.93
6349;BME280;3207;42.648;23.406;2024-01-30T12:26:52;102003.28;;;21.72;23.36
6349;BME280;3207;42.648;23.406;2024-01-30T12:29:20;102037.81;;;20.58;25.09
6349;BME280;3207;42.648;23.406;2024-01-30T12:31:47;102041.69;;;19.78;26.03
6349;BME280;3207;42.648;23.406;2024-01-30T12:34:14;102030.38;;;19.29;26.75
6349;BME280;3207;42.648;23.406;2024-01-30T12:36:44;102020.72;;;18.71;27.48
6349;BME280;3207;42.648;23.406;2024-01-30T12:39:11;102017.00;;;18.13;28.36
6349;BME280;3207;42.648;23.406;2024-01-30T12:41:40;102018.78;;;17.51;29.41
6349;BME280;3207;42.648;23.406;2024-01-30T12:44:07;102027.84;;;17.09;30.26
6349;BME280;3207;42.648;23.406;2024-01-30T12:46:34;102020.09;;;16.80;30.70
6349;BME280;3207;42.648;23.406;2024-01-30T12:49:01;102017.03;;;16.33;31.50
6349;BME280;3207;42.648;23.406;2024-01-30T12:51:28;102015.50;;;16.16;32.00
6349;BME280;3207;42.648;23.406;2024-01-30T12:53:57;102016.28;;;16.04;32.71
6349;BME280;3207;42.648;23.406;2024-01-30T12:56:24;102016.59;;;15.85;32.50
6349;BME280;3207;42.648;23.406;2024-01-30T12:58:51;102022.44;;;15.76;32.26
6349;BME280;3207;42.648;23.406;2024-01-30T13:01:18;102020.06;;;15.71;32.52
6349;BME280;3207;42.648;23.406;2024-01-30T13:03:45;102014.47;;;15.48;32.74
6349;BME280;3207;42.648;23.406;2024-01-30T13:06:12;102005.66;;;15.34;33.61
6349;BME280;3207;42.648;23.406;2024-01-30T13:08:39;102007.53;;;15.32;33.73